Time;durP1;ratioP1;P1;durP2;ratioP2;P2;SDS_P1;SDS_P2;PMS_P1;PMS_P2;Temp;Humidity;BMP_temperature;BMP_pressure;BME280_temperature;BME280_humidity;BME280_pressure;Samples;Min_cycle;Max_cycle;Signal;HPM_P1;HPM_P2
2021/01/01 00:01:35;;;;;;;11.48;8.02;;;;;;;;;;10480253;27;20070;-58
2021/01/01 00:06:33;;;;;;;13.25;8.60;;;;;;;;;;10474607;27;20108;-60
2021/01/01 00:11:32;;;;;;;12.70;9.23;;;;;;;;;;10459134;27;20494;-60
2021/01/01 00:16:29;;;;;;;10.23;7.18;;;;;;;;;;10465854;27;20062;-62
2021/01/01 00:21:28;;;;;;;10.32;6.38;;;;;;;;;;10466796;27;20114;-61
2021/01/01 00:26:26;;;;;;;20.77;8.95;;;;;;;;;;10471651;27;20066;-59
2021/01/01 00:31:25;;;;;;;11.05;6.63;;;;;;;;;;10468887;27;20070;-60
2021/01/01 00:36:23;;;;;;;9.68;6.57;;;;;;;;;;10480218;27;20071;-61
2021/01/01 00:41:21;;;;;;;10.57;7.20;;;;;;;;;;10486797;27;20129;-61
2021/01/01 00:46:18;;;;;;;10.88;6.78;;;;;;;;;;10487287;27;20066;-62
2021/01/01 00:51:23;;;;;;;8.77;6.97;;;;;;;;;;10495189;27;20078;-61
2021/01/01 00:56:20;;;;;;;7.80;5.93;;;;;;;;;;10468017;27;20076;-61
2021/01/01 01:01:18;;;;;;;12.68;6.13;;;;;;;;;;10478441;27;20077;-60
2021/01/01 01:06:16;;;;;;;10.45;6.57;;;;;;;;;;10469657;27;20077;-60
2021/01/01 01:11:14;;;;;;;10.43;6.57;;;;;;;;;;10464806;27;20143;-60
2021/01/01 01:16:11;;;;;;;10.27;7.68;;;;;;;;;;10477755;27;20070;-60
2021/01/01 01:21:09;;;;;;;13.05;7.80;;;;;;;;;;10479058;27;20089;-62
2021/01/01 01:26:07;;;;;;;16.95;6.60;;;;;;;;;;10484235;27;20070;-61
2021/01/01 01:31:05;;;;;;;8.95;6.68;;;;;;;;;;10469411;27;20058;-59
2021/01/01 01:36:02;;;;;;;7.85;6.03;;;;;;;;;;10443429;27;20070;-61
2021/01/01 01:40:59;;;;;;;12.73;7.38;;;;;;;;;;10473827;27;20074;-60
2021/01/01 01:45:58;;;;;;;11.75;7.15;;;;;;;;;;10468588;27;20470;-61
2021/01/01 01:50:55;;;;;;;12.75;7.30;;;;;;;;;;10482434;27;20073;-61
2021/01/01 01:55:53;;;;;;;16.40;9.75;;;;;;;;;;10463580;27;20534;-60
2021/01/01 02:00:57;;;;;;;12.68;9.35;;;;;;;;;;10475122;27;20077;-61
2021/01/01 02:05:56;;;;;;;12.15;9.88;;;;;;;;;;10478269;27;20075;-56
2021/01/01 02:10:54;;;;;;;14.05;10.02;;;;;;;;;;10474902;27;20082;-62
2021/01/01 02:15:52;;;;;;;12.05;9.18;;;;;;;;;;10474226;27;20468;-60
2021/01/01 02:20:49;;;;;;;15.25;9.43;;;;;;;;;;10470046;27;20070;-60
2021/01/01 02:25:47;;;;;;;14.13;9.82;;;;;;;;;;10467299;27;20534;-60
2021/01/01 02:30:44;;;;;;;15.98;10.68;;;;;;;;;;10470881;27;20165;-60
2021/01/01 02:35:42;;;;;;;23.05;14.70;;;;;;;;;;10467688;27;20077;-60
2021/01/01 02:40:39;;;;;;;18.77;11.25;;;;;;;;;;10456091;27;20134;-59
2021/01/01 02:45:38;;;;;;;16.42;11.27;;;;;;;;;;10460585;27;20138;-59
2021/01/01 02:50:35;;;;;;;18.60;13.27;;;;;;;;;;10462587;27;20460;-61
2021/01/01 02:55:33;;;;;;;18.55;14.88;;;;;;;;;;10469186;27;20471;-58
2021/01/01 03:00:31;;;;;;;17.13;14.57;;;;;;;;;;10457563;27;20125;-60
2021/01/01 03:05:29;;;;;;;16.67;13.43;;;;;;;;;;10448600;27;20070;-60
2021/01/01 03:10:26;;;;;;;17.75;13.50;;;;;;;;;;10469535;27;20070;-60
2021/01/01 03:15:24;;;;;;;19.42;14.98;;;;;;;;;;10466165;27;20424;-62
2021/01/01 03:20:21;;;;;;;17.60;13.77;;;;;;;;;;10448039;27;20066;-62
2021/01/01 03:25:19;;;;;;;21.33;15.07;;;;;;;;;;10460403;27;20059;-61
2021/01/01 03:30:17;;;;;;;24.65;16.83;;;;;;;;;;10475138;27;20054;-61
2021/01/01 03:35:15;;;;;;;22.83;16.60;;;;;;;;;;10481094;27;20043;-61
2021/01/01 03:40:12;;;;;;;28.48;16.40;;;;;;;;;;10479848;27;20490;-62
2021/01/01 03:45:11;;;;;;;16.95;13.70;;;;;;;;;;10470170;27;20066;-62
2021/01/01 03:50:09;;;;;;;18.55;13.73;;;;;;;;;;10449031;27;20043;-63
2021/01/01 03:55:07;;;;;;;20.60;14.10;;;;;;;;;;10440468;27;20043;-62
2021/01/01 04:00:05;;;;;;;20.55;14.85;;;;;;;;;;10439722;28;20074;-62
2021/01/01 04:05:09;;;;;;;16.58;13.52;;;;;;;;;;10458446;27;20058;-61
2021/01/01 04:10:07;;;;;;;17.08;13.18;;;;;;;;;;10440617;27;20105;-61
2021/01/01 04:15:05;;;;;;;19.50;13.15;;;;;;;;;;10448574;27;20047;-61
2021/01/01 04:20:03;;;;;;;21.50;14.30;;;;;;;;;;10448090;27;20051;-61
2021/01/01 04:25:02;;;;;;;21.67;13.43;;;;;;;;;;10447877;27;20047;-61
2021/01/01 04:29:59;;;;;;;18.52;13.77;;;;;;;;;;10447150;27;20471;-62
2021/01/01 04:34:56;;;;;;;20.23;14.73;;;;;;;;;;10459250;27;20070;-61
2021/01/01 04:39:53;;;;;;;20.80;14.77;;;;;;;;;;10460239;27;20062;-61
2021/01/01 04:44:52;;;;;;;17.98;14.25;;;;;;;;;;10446831;27;20082;-61
2021/01/01 04:49:49;;;;;;;23.00;15.50;;;;;;;;;;10445562;27;20063;-61
2021/01/01 04:54:48;;;;;;;16.05;13.95;;;;;;;;;;10455834;27;20466;-62
2021/01/01 04:59:45;;;;;;;19.98;13.90;;;;;;;;;;10457646;27;20074;-61
2021/01/01 05:04:45;;;;;;;25.73;15.32;;;;;;;;;;10449242;27;20050;-61
2021/01/01 05:09:43;;;;;;;21.00;13.90;;;;;;;;;;10446026;27;20077;-61
2021/01/01 05:14:41;;;;;;;17.00;13.07;;;;;;;;;;10447006;27;20039;-61
2021/01/01 05:19:39;;;;;;;16.52;12.82;;;;;;;;;;10451152;27;20530;-61
2021/01/01 05:24:39;;;;;;;17.08;13.93;;;;;;;;;;10451292;27;20047;-61
2021/01/01 05:29:41;;;;;;;17.52;14.05;;;;;;;;;;10446573;27;20066;-61
2021/01/01 05:34:42;;;;;;;21.50;15.25;;;;;;;;;;10445364;27;20071;-62
2021/01/01 05:39:41;;;;;;;18.33;13.82;;;;;;;;;;10449006;27;20085;-62
2021/01/01 05:44:38;;;;;;;16.50;13.07;;;;;;;;;;10460627;27;20467;-63
2021/01/01 05:49:36;;;;;;;20.98;15.50;;;;;;;;;;10458461;27;20051;-62
2021/01/01 05:54:34;;;;;;;23.63;14.98;;;;;;;;;;10475435;27;20078;-61
2021/01/01 05:59:34;;;;;;;20.65;14.82;;;;;;;;;;10478351;27;20074;-62
2021/01/01 06:04:32;;;;;;;17.92;13.52;;;;;;;;;;10474241;27;20046;-62
2021/01/01 06:09:30;;;;;;;15.70;13.20;;;;;;;;;;10485090;27;20046;-61
2021/01/01 06:14:30;;;;;;;16.95;13.52;;;;;;;;;;10448588;27;20035;-61
2021/01/01 06:19:37;;;;;;;26.52;13.15;;;;;;;;;;10444503;27;20074;-61
2021/01/01 06:24:42;;;;;;;18.58;13.82;;;;;;;;;;10453669;27;20498;-61
2021/01/01 06:29:43;;;;;;;17.67;13.20;;;;;;;;;;10443097;27;20050;-63
2021/01/01 06:34:42;;;;;;;17.42;14.30;;;;;;;;;;10443203;27;20075;-62
2021/01/01 06:39:43;;;;;;;19.75;14.05;;;;;;;;;;10442942;27;20075;-62
2021/01/01 06:44:41;;;;;;;25.33;16.35;;;;;;;;;;10445682;27;20515;-62
2021/01/01 06:49:38;;;;;;;16.33;13.35;;;;;;;;;;10474135;27;20043;-61
2021/01/01 06:54:51;;;;;;;16.90;12.23;;;;;;;;;;10478577;27;20480;-61
2021/01/01 06:59:49;;;;;;;17.27;11.73;;;;;;;;;;10454138;27;20090;-62
2021/01/01 07:04:49;;;;;;;15.00;11.40;;;;;;;;;;10439966;28;20077;-61
2021/01/01 07:09:47;;;;;;;14.88;13.27;;;;;;;;;;10439994;28;20050;-62
2021/01/01 07:14:44;;;;;;;22.52;16.17;;;;;;;;;;10439771;28;20427;-62
2021/01/01 07:19:42;;;;;;;16.88;12.15;;;;;;;;;;10439334;28;20492;-61
2021/01/01 07:24:39;;;;;;;103.97;40.90;;;;;;;;;;10444266;27;20067;-63
2021/01/01 07:29:37;;;;;;;46.38;18.08;;;;;;;;;;10456275;27;20043;-63
2021/01/01 07:34:34;;;;;;;45.97;21.38;;;;;;;;;;10476338;27;20415;-61
2021/01/01 07:39:33;;;;;;;38.67;22.33;;;;;;;;;;10471017;27;20078;-61
2021/01/01 07:44:31;;;;;;;24.75;14.00;;;;;;;;;;10428255;27;621053;-62
2021/01/01 07:49:31;;;;;;;14.88;11.35;;;;;;;;;;10474536;27;20047;-62
2021/01/01 07:54:28;;;;;;;16.33;12.02;;;;;;;;;;10449521;27;20050;-63
2021/01/01 07:59:26;;;;;;;21.13;14.93;;;;;;;;;;10440503;28;20078;-63
2021/01/01 08:04:24;;;;;;;18.73;13.38;;;;;;;;;;10441289;28;20412;-62
2021/01/01 08:09:21;;;;;;;18.60;16.50;;;;;;;;;;10448852;27;20047;-62
2021/01/01 08:14:20;;;;;;;17.90;12.27;;;;;;;;;;10457998;27;20047;-62
2021/01/01 08:19:23;;;;;;;13.32;9.98;;;;;;;;;;10459197;27;20109;-61
2021/01/01 08:24:22;;;;;;;14.70;11.02;;;;;;;;;;10439893;28;20081;-60
2021/01/01 08:29:19;;;;;;;17.55;13.48;;;;;;;;;;10439999;28;20048;-61
2021/01/01 08:34:17;;;;;;;21.85;15.93;;;;;;;;;;10439987;28;20453;-62
2021/01/01 08:39:16;;;;;;;66.60;42.13;;;;;;;;;;10436757;28;20109;-61
2021/01/01 08:44:14;;;;;;;31.85;21.50;;;;;;;;;;10447094;27;20085;-62
2021/01/01 08:49:16;;;;;;;35.92;23.20;;;;;;;;;;10456857;27;20071;-61
2021/01/01 08:54:24;;;;;;;33.20;22.83;;;;;;;;;;10456633;27;20085;-60
2021/01/01 08:59:21;;;;;;;40.47;25.13;;;;;;;;;;10455651;27;20078;-61
2021/01/01 09:04:22;;;;;;;15.50;13.45;;;;;;;;;;10486912;27;20491;-61
2021/01/01 09:09:26;;;;;;;36.72;23.10;;;;;;;;;;10482442;27;20078;-61
2021/01/01 09:14:23;;;;;;;15.55;13.00;;;;;;;;;;10459310;27;20071;-62
2021/01/01 09:19:21;;;;;;;19.50;15.63;;;;;;;;;;10467377;27;20074;-61
2021/01/01 09:24:23;;;;;;;40.75;29.13;;;;;;;;;;10469552;27;20069;-60
2021/01/01 09:29:23;;;;;;;16.95;13.10;;;;;;;;;;10460831;27;20506;-60
2021/01/01 09:34:20;;;;;;;12.82;10.75;;;;;;;;;;10467012;27;20510;-61
2021/01/01 09:39:18;;;;;;;22.65;18.35;;;;;;;;;;10468343;27;20078;-60
2021/01/01 09:44:15;;;;;;;13.85;11.32;;;;;;;;;;10459512;27;20066;-61
2021/01/01 09:49:13;;;;;;;11.10;9.77;;;;;;;;;;10463110;27;20054;-62
2021/01/01 09:54:10;;;;;;;17.67;14.25;;;;;;;;;;10482128;27;20380;-62
2021/01/01 09:59:08;;;;;;;17.92;12.93;;;;;;;;;;10442039;27;20058;-62
2021/01/01 10:04:05;;;;;;;29.92;19.65;;;;;;;;;;10455966;27;20043;-61
2021/01/01 10:09:03;;;;;;;15.50;13.82;;;;;;;;;;10443515;27;20047;-61
2021/01/01 10:14:01;;;;;;;13.60;10.98;;;;;;;;;;10444349;27;20039;-61
2021/01/01 10:18:59;;;;;;;15.98;12.65;;;;;;;;;;10444346;27;20077;-61
2021/01/01 10:23:56;;;;;;;19.33;14.98;;;;;;;;;;10443619;27;20046;-61
2021/01/01 10:28:55;;;;;;;25.25;18.20;;;;;;;;;;10443208;27;20054;-62
2021/01/01 10:33:52;;;;;;;15.07;12.48;;;;;;;;;;10457096;27;20075;-61
2021/01/01 10:38:49;;;;;;;21.05;16.90;;;;;;;;;;10451344;27;20074;-61
2021/01/01 10:43:47;;;;;;;17.10;13.02;;;;;;;;;;10444966;27;20103;-62
2021/01/01 10:48:45;;;;;;;26.77;17.58;;;;;;;;;;10464462;27;20066;-62
2021/01/01 10:53:42;;;;;;;14.20;11.18;;;;;;;;;;10462445;27;20056;-62
2021/01/01 10:58:40;;;;;;;22.23;16.25;;;;;;;;;;10454719;27;20424;-62
2021/01/01 11:03:37;;;;;;;23.02;15.77;;;;;;;;;;10440907;27;20546;-61
2021/01/01 11:08:35;;;;;;;24.27;18.52;;;;;;;;;;10442214;27;20035;-61
2021/01/01 11:13:33;;;;;;;19.52;15.25;;;;;;;;;;10441493;27;20054;-62
2021/01/01 12:22:09;;;;;;;22.10;15.00;;;;;;;;;;10439640;28;20100;-61
2021/01/01 12:27:08;;;;;;;31.70;20.15;;;;;;;;;;10439552;28;20047;-61
2021/01/01 12:32:05;;;;;;;37.05;26.23;;;;;;;;;;10442330;27;20050;-62
2021/01/01 12:37:09;;;;;;;24.50;16.23;;;;;;;;;;10447595;27;20043;-63
2021/01/01 12:42:07;;;;;;;30.15;20.38;;;;;;;;;;10447597;27;20457;-62
2021/01/01 12:47:06;;;;;;;24.80;15.80;;;;;;;;;;10447917;27;20041;-62
2021/01/01 12:52:03;;;;;;;23.33;17.17;;;;;;;;;;10447585;27;20043;-63
2021/01/01 12:57:01;;;;;;;30.60;17.52;;;;;;;;;;10447683;27;20504;-61
2021/01/01 13:02:00;;;;;;;33.67;19.10;;;;;;;;;;10447259;27;20090;-62
2021/01/01 13:06:58;;;;;;;26.15;18.40;;;;;;;;;;10428378;27;20047;-62
2021/01/01 13:11:55;;;;;;;55.90;32.85;;;;;;;;;;10446828;27;20516;-61
2021/01/01 13:16:55;;;;;;;55.55;32.13;;;;;;;;;;10446488;27;20052;-62
2021/01/01 13:21:55;;;;;;;34.40;24.35;;;;;;;;;;10446315;27;20078;-62
2021/01/01 13:26:52;;;;;;;67.43;48.45;;;;;;;;;;10446048;27;20046;-62
2021/01/01 13:31:50;;;;;;;90.18;61.20;;;;;;;;;;10445881;27;20046;-63
2021/01/01 13:36:51;;;;;;;57.60;42.55;;;;;;;;;;10445466;27;20035;-62
2021/01/01 13:41:52;;;;;;;36.13;24.63;;;;;;;;;;10444877;27;20075;-62
2021/01/01 13:46:49;;;;;;;36.05;28.20;;;;;;;;;;10445051;27;20043;-60
2021/01/01 13:51:46;;;;;;;38.40;29.77;;;;;;;;;;10444804;27;20079;-60
2021/01/01 13:56:44;;;;;;;42.33;29.27;;;;;;;;;;10443832;27;20058;-61
2021/01/01 14:01:42;;;;;;;113.38;72.90;;;;;;;;;;10444045;27;20078;-61
2021/01/01 14:06:39;;;;;;;96.85;58.88;;;;;;;;;;10443982;27;20078;-62
2021/01/01 14:11:36;;;;;;;88.18;51.28;;;;;;;;;;10444029;27;20408;-62
2021/01/01 14:16:34;;;;;;;128.98;78.70;;;;;;;;;;10443823;27;20051;-62
2021/01/01 14:21:32;;;;;;;42.88;32.55;;;;;;;;;;10443896;27;20455;-61
2021/01/01 14:26:29;;;;;;;58.78;35.10;;;;;;;;;;10443372;27;20043;-61
2021/01/01 14:31:26;;;;;;;25.52;16.83;;;;;;;;;;10443119;27;20051;-62
2021/01/01 14:36:30;;;;;;;234.82;105.95;;;;;;;;;;10443524;27;20047;-62
2021/01/01 14:41:32;;;;;;;294.63;123.78;;;;;;;;;;10442437;27;20086;-62
2021/01/01 14:46:29;;;;;;;95.82;46.17;;;;;;;;;;10442613;27;20440;-62
2021/01/01 14:51:27;;;;;;;189.90;89.50;;;;;;;;;;10423427;27;20502;-62
2021/01/01 14:56:33;;;;;;;261.35;132.80;;;;;;;;;;10440684;27;20051;-61
2021/01/01 15:01:32;;;;;;;558.88;308.95;;;;;;;;;;10441353;27;20090;-62
2021/01/01 15:06:29;;;;;;;679.13;368.15;;;;;;;;;;10441830;27;20075;-61
2021/01/01 15:11:27;;;;;;;450.75;230.77;;;;;;;;;;10456953;27;20063;-61
2021/01/01 15:16:24;;;;;;;404.63;217.63;;;;;;;;;;10464681;27;20035;-61
2021/01/01 15:21:22;;;;;;;878.53;455.50;;;;;;;;;;10462889;27;20078;-61
2021/01/01 15:26:20;;;;;;;232.23;126.18;;;;;;;;;;10463963;27;20081;-61
2021/01/01 15:31:18;;;;;;;245.68;134.20;;;;;;;;;;10473136;27;20070;-62
2021/01/01 15:36:16;;;;;;;254.68;135.43;;;;;;;;;;10459301;27;20055;-62
2021/01/01 15:41:15;;;;;;;66.20;37.88;;;;;;;;;;10453467;27;20086;-62
2021/01/01 15:46:13;;;;;;;117.82;71.53;;;;;;;;;;10452239;27;20051;-62
2021/01/01 15:51:12;;;;;;;224.00;123.90;;;;;;;;;;10463837;27;20452;-61
2021/01/01 15:56:10;;;;;;;469.27;271.20;;;;;;;;;;10470091;27;20066;-63
2021/01/01 16:01:08;;;;;;;136.40;81.72;;;;;;;;;;10462463;27;20081;-62
2021/01/01 16:06:06;;;;;;;121.78;67.93;;;;;;;;;;10467605;27;20066;-62
2021/01/01 16:11:03;;;;;;;79.00;46.03;;;;;;;;;;10490352;27;20069;-63
2021/01/01 16:16:01;;;;;;;100.72;58.13;;;;;;;;;;10491382;27;20050;-62
2021/01/01 16:20:59;;;;;;;266.30;141.27;;;;;;;;;;10490795;27;20058;-61
2021/01/01 16:25:57;;;;;;;221.70;124.22;;;;;;;;;;10490390;27;20476;-60
2021/01/01 16:30:54;;;;;;;312.92;170.23;;;;;;;;;;10472158;27;20082;-62
2021/01/01 16:35:52;;;;;;;418.83;252.65;;;;;;;;;;10447267;27;20047;-62
2021/01/01 16:40:51;;;;;;;435.33;243.73;;;;;;;;;;10446645;27;20344;-62
2021/01/01 16:45:48;;;;;;;439.65;240.73;;;;;;;;;;10437631;27;20518;-63
2021/01/01 16:50:46;;;;;;;299.40;151.07;;;;;;;;;;10449187;27;20051;-62
2021/01/01 16:55:43;;;;;;;268.35;138.18;;;;;;;;;;10462729;27;20073;-62
2021/01/01 17:00:41;;;;;;;180.88;91.07;;;;;;;;;;10449642;27;20089;-62
2021/01/01 17:05:39;;;;;;;99.32;51.05;;;;;;;;;;10481876;27;20498;-62
2021/01/01 17:10:36;;;;;;;91.78;44.42;;;;;;;;;;10462579;27;20067;-62
2021/01/01 17:15:33;;;;;;;37.22;21.02;;;;;;;;;;10450662;27;20081;-62
2021/01/01 17:20:32;;;;;;;169.73;75.28;;;;;;;;;;10459535;27;20082;-60
2021/01/01 17:25:29;;;;;;;75.90;37.88;;;;;;;;;;10445661;27;20522;-62
2021/01/01 17:30:26;;;;;;;196.88;86.70;;;;;;;;;;10455370;27;20456;-60
2021/01/01 17:35:24;;;;;;;61.38;29.52;;;;;;;;;;10462796;27;20141;-62
2021/01/01 17:40:22;;;;;;;44.17;24.92;;;;;;;;;;10478727;27;20459;-63
2021/01/01 17:45:19;;;;;;;53.83;26.02;;;;;;;;;;10486061;27;20050;-62
2021/01/01 17:50:18;;;;;;;33.53;19.08;;;;;;;;;;10486898;27;20054;-61
2021/01/01 17:55:18;;;;;;;40.53;23.20;;;;;;;;;;10486702;27;20035;-61
2021/01/01 18:00:17;;;;;;;56.33;31.08;;;;;;;;;;10486371;27;20111;-60
2021/01/01 18:05:17;;;;;;;33.70;19.77;;;;;;;;;;10466948;27;20496;-62
2021/01/01 18:10:15;;;;;;;28.73;16.25;;;;;;;;;;10485471;27;20054;-62
2021/01/01 18:15:12;;;;;;;41.17;27.70;;;;;;;;;;10485631;27;20047;-60
2021/01/01 18:20:11;;;;;;;105.25;48.92;;;;;;;;;;10485393;27;20384;-61
2021/01/01 18:25:09;;;;;;;37.95;22.13;;;;;;;;;;10484569;27;20053;-62
2021/01/01 18:30:07;;;;;;;14.38;12.23;;;;;;;;;;10483661;27;20046;-62
2021/01/01 18:35:05;;;;;;;40.97;26.52;;;;;;;;;;10484404;27;20042;-62
2021/01/01 18:40:04;;;;;;;27.23;19.30;;;;;;;;;;10484679;27;20046;-63
2021/01/01 18:45:02;;;;;;;18.40;11.35;;;;;;;;;;10484362;27;20543;-62
2021/01/01 18:50:03;;;;;;;25.83;15.82;;;;;;;;;;10484640;27;20503;-62
2021/01/01 18:55:01;;;;;;;14.38;10.95;;;;;;;;;;10484517;27;20058;-63
2021/01/01 19:00:11;;;;;;;54.88;31.05;;;;;;;;;;10483979;27;20427;-62
2021/01/01 19:05:17;;;;;;;96.45;44.55;;;;;;;;;;10482885;27;20078;-63
2021/01/01 19:10:17;;;;;;;75.00;27.83;;;;;;;;;;10483646;27;20046;-62
2021/01/01 19:15:20;;;;;;;67.53;38.33;;;;;;;;;;10482034;27;20046;-62
2021/01/01 19:20:18;;;;;;;31.63;22.38;;;;;;;;;;10477847;27;20074;-62
2021/01/01 19:25:22;;;;;;;16.27;12.18;;;;;;;;;;10478174;27;20059;-62
2021/01/01 19:30:22;;;;;;;12.32;9.38;;;;;;;;;;10477096;27;20074;-62
2021/01/01 19:35:25;;;;;;;13.40;10.27;;;;;;;;;;10481784;27;20046;-62
2021/01/01 19:40:41;;;;;;;17.73;12.15;;;;;;;;;;10478166;27;20050;-62
2021/01/01 19:45:52;;;;;;;12.45;9.73;;;;;;;;;;10479394;27;20056;-62
2021/01/01 19:50:57;;;;;;;30.38;20.27;;;;;;;;;;10480292;27;20078;-61
2021/01/01 19:55:55;;;;;;;77.60;41.83;;;;;;;;;;10459532;27;20039;-61
2021/01/01 20:01:00;;;;;;;46.25;25.63;;;;;;;;;;10477666;27;20504;-62
2021/01/01 20:05:58;;;;;;;15.37;12.50;;;;;;;;;;10475202;27;20066;-63
2021/01/01 20:10:56;;;;;;;22.33;14.50;;;;;;;;;;10479673;27;20039;-62
2021/01/01 20:15:53;;;;;;;36.25;22.58;;;;;;;;;;10480596;27;20034;-63
2021/01/01 20:20:53;;;;;;;24.65;17.85;;;;;;;;;;10480078;27;20074;-62
2021/01/01 20:25:50;;;;;;;26.33;18.25;;;;;;;;;;10456357;27;20042;-61
2021/01/01 20:30:56;;;;;;;22.08;15.25;;;;;;;;;;10480223;27;20061;-61
2021/01/01 20:35:53;;;;;;;;;;;;;;;;;;10475700;27;20058;-61
2021/01/01 20:41:04;;;;;;;16.73;12.00;;;;;;;;;;10473880;27;20005;-62
2021/01/01 20:46:51;;;;;;;30.00;19.90;;;;;;;;;;10455610;27;20108;-62
2021/01/01 20:57:06;;;;;;;46.00;26.80;;;;;;;;;;10459395;27;20139;-63
2021/01/01 21:02:08;;;;;;;23.30;15.73;;;;;;;;;;10453849;27;20070;-63
2021/01/01 21:07:12;;;;;;;28.65;17.40;;;;;;;;;;10461767;27;20039;-62
2021/01/01 21:12:31;;;;;;;20.20;14.27;;;;;;;;;;10467588;27;20039;-63
2021/01/01 21:17:38;;;;;;;14.68;12.15;;;;;;;;;;10457648;27;20085;-63
2021/01/01 21:22:48;;;;;;;17.33;11.18;;;;;;;;;;10453374;27;20078;-63
2021/01/01 21:28:04;;;;;;;16.30;12.57;;;;;;;;;;10461097;27;20039;-62
2021/01/01 21:33:01;;;;;;;;;;;;;;;;;;10465669;27;20038;-62
2021/01/01 21:38:13;;;;;;;24.38;15.85;;;;;;;;;;10465699;27;19926;-62
2021/01/01 21:43:29;;;;;;;22.40;14.25;;;;;;;;;;10475837;27;20082;-62
2021/01/01 21:48:36;;;;;;;37.65;23.50;;;;;;;;;;10483560;27;20047;-63
2021/01/01 21:53:34;;;;;;;35.55;18.58;;;;;;;;;;10485449;27;20035;-63
2021/01/01 21:58:32;;;;;;;31.00;18.98;;;;;;;;;;10485682;27;20247;-62
2021/01/01 22:03:30;;;;;;;43.40;24.15;;;;;;;;;;10484942;27;20085;-61
2021/01/01 22:08:28;;;;;;;69.20;35.33;;;;;;;;;;10484646;27;20074;-62
2021/01/01 22:13:26;;;;;;;97.22;51.08;;;;;;;;;;10479576;27;20039;-63
2021/01/01 22:18:23;;;;;;;51.80;28.73;;;;;;;;;;10482859;27;20046;-63
2021/01/01 22:23:20;;;;;;;33.15;19.58;;;;;;;;;;10484560;27;20069;-62
2021/01/01 22:28:19;;;;;;;9.18;7.63;;;;;;;;;;10484474;27;20062;-63
2021/01/01 22:33:16;;;;;;;11.13;9.43;;;;;;;;;;10482910;27;20054;-62
2021/01/01 22:38:15;;;;;;;7.93;6.55;;;;;;;;;;10479337;27;20067;-63
2021/01/01 22:43:12;;;;;;;9.35;7.75;;;;;;;;;;10468546;27;20092;-61
2021/01/01 22:48:11;;;;;;;9.00;7.07;;;;;;;;;;10460996;27;20055;-62
2021/01/01 22:53:08;;;;;;;9.18;7.38;;;;;;;;;;10463303;27;20046;-62
2021/01/01 22:58:08;;;;;;;8.55;6.78;;;;;;;;;;10461804;27;20034;-63
2021/01/01 23:03:06;;;;;;;7.75;6.88;;;;;;;;;;10459367;27;20067;-62
2021/01/01 23:08:05;;;;;;;11.38;7.28;;;;;;;;;;10461858;27;20035;-61
2021/01/01 23:13:02;;;;;;;7.20;6.40;;;;;;;;;;10463482;27;20043;-62
2021/01/01 23:18:02;;;;;;;7.72;6.60;;;;;;;;;;10460578;27;20042;-63
2021/01/01 23:23:00;;;;;;;8.13;5.80;;;;;;;;;;10462304;27;20461;-62
2021/01/01 23:28:17;;;;;;;7.97;6.68;;;;;;;;;;10460650;27;20515;-62
2021/01/01 23:33:16;;;;;;;6.75;6.05;;;;;;;;;;10459384;27;20043;-62
2021/01/01 23:38:31;;;;;;;6.50;5.88;;;;;;;;;;10461270;27;20078;-63
2021/01/01 23:43:32;;;;;;;7.85;6.15;;;;;;;;;;10458026;27;20527;-62
2021/01/01 23:48:36;;;;;;;7.15;5.35;;;;;;;;;;10461032;27;20039;-62
2021/01/01 23:53:36;;;;;;;6.53;5.93;;;;;;;;;;10460419;27;20035;-61
2021/01/01 23:58:35;;;;;;;8.05;6.75;;;;;;;;;;10459243;27;20070;-61
